createdAt,value
2023-05-03T00:42:52.099Z,0.02
2023-05-03T00:47:36.332Z,0.01
2023-05-03T00:50:06.901Z,0.02
2023-05-03T00:52:24.790Z,0.03
2023-05-03T00:54:28.752Z,0.01
2023-05-03T01:18:52.986Z,0
2023-05-03T01:25:59.915Z,0.01
2023-05-03T01:28:56.227Z,0
2023-05-03T01:58:25.605Z,0.01
2023-05-03T02:05:43.549Z,0
2023-05-03T02:08:02.121Z,0.01
2023-05-03T02:10:06.962Z,0
2023-05-03T02:12:59.736Z,0.01
2023-05-03T02:15:38.487Z,0
2023-05-03T02:18:03.207Z,0.01
2023-05-03T02:31:46.033Z,0
2023-05-03T02:34:37.207Z,0.01
2023-05-03T02:54:12.156Z,0.02
2023-05-03T03:01:58.147Z,0.03
2023-05-03T03:04:05.450Z,0.04
2023-05-03T03:07:00.761Z,0.06
2023-05-03T03:09:42.109Z,0.1
2023-05-03T03:12:09.449Z,0.14
2023-05-03T03:14:22.839Z,0.2
2023-05-03T03:16:22.373Z,0.27
2023-05-03T03:19:09.788Z,0.37
2023-05-03T03:21:43.173Z,0.57
2023-05-03T03:24:02.296Z,0.83
2023-05-03T03:26:07.811Z,1.11
2023-05-03T03:29:01.396Z,1.75
2023-05-03T03:31:41.045Z,2.52
2023-05-03T03:34:06.717Z,3.62
2023-05-03T03:36:18.415Z,5.28
2023-05-03T03:38:16.268Z,7.07
2023-05-03T03:41:02.069Z,10.85
2023-05-03T03:43:14.927Z,14.23
2023-05-03T03:45:13.767Z,18.54
2023-05-03T03:48:00.576Z,26.8
2023-05-03T03:50:33.564Z,35.55
2023-05-03T03:52:52.600Z,46.2
2023-05-03T03:54:57.508Z,56.22
2023-05-03T03:57:50.633Z,73.6
2023-05-03T04:00:29.709Z,94.16
2023-05-03T04:02:54.678Z,113.32
2023-05-03T04:05:05.816Z,130.16
2023-05-03T04:07:03.024Z,148.12
2023-05-03T04:09:48.353Z,177.8
2023-05-03T04:12:19.155Z,204
2023-05-03T04:14:35.895Z,231.7
2023-05-03T04:16:39.231Z,255.4
2023-05-03T04:19:30.228Z,292.8
2023-05-03T04:22:07.553Z,325.2
2023-05-03T04:24:30.858Z,358.4
2023-05-03T04:26:40.062Z,390.8
2023-05-03T04:29:37.463Z,430.8
2023-05-03T04:32:20.906Z,474.7
2023-05-03T04:34:51.314Z,516.1
2023-05-03T04:37:05.700Z,547.2
2023-05-03T04:39:07.226Z,600.6
2023-05-03T04:41:56.789Z,650.8
2023-05-03T04:44:32.313Z,684.8
2023-05-03T04:46:54.007Z,703
2023-05-03T04:49:01.619Z,716.1
2023-05-03T04:51:57.228Z,742
2023-05-03T04:54:39.075Z,785.6
2023-05-03T04:57:06.787Z,822.7
2023-05-03T04:59:20.571Z,837.4
2023-05-03T05:01:20.472Z,843.2
2023-05-03T05:04:08.571Z,858.2
2023-05-03T05:06:41.749Z,864
2023-05-03T05:09:01.471Z,872.3
2023-05-03T05:11:07.449Z,930.5
2023-05-03T05:14:01.371Z,1011.5
2023-05-03T05:16:41.235Z,1107.8
2023-05-03T05:19:07.165Z,1188.1
2023-05-03T05:21:19.130Z,1206
2023-05-03T05:23:17.124Z,1255.6
2023-05-03T05:26:03.303Z,1312.6
2023-05-03T05:28:35.365Z,1328
2023-05-03T05:30:53.352Z,1323.5
2023-05-03T05:32:57.630Z,1295
2023-05-03T05:35:49.785Z,1268.1
2023-05-03T05:38:27.686Z,1322.8
2023-05-03T05:40:51.621Z,1268.1
2023-05-03T05:43:01.759Z,1356.8
2023-05-03T05:44:57.945Z,1341.4
2023-05-03T05:47:42.154Z,1344.6
2023-05-03T05:52:28.682Z,1315.2
2023-05-03T05:54:30.889Z,1306.8
2023-05-03T05:57:20.888Z,1308.1
2023-05-03T05:59:57.317Z,1306.5
2023-05-03T06:02:19.832Z,1322.8
2023-05-03T06:04:28.278Z,1337.6
2023-05-03T06:07:24.775Z,1370.2
2023-05-03T06:10:07.337Z,1381.1
2023-05-03T06:12:35.594Z,1402.2
2023-05-03T06:15:01.203Z,1427.8
2023-05-03T06:16:50.729Z,1436.8
2023-05-03T06:19:38.953Z,1454
2023-05-03T06:22:13.560Z,1469.4
2023-05-03T06:24:34.131Z,1485.4
2023-05-03T06:26:40.621Z,1497.6
2023-05-03T06:29:35.329Z,1521.2
2023-05-03T06:32:16.010Z,1549.4
2023-05-03T06:34:42.633Z,1580.1
2023-05-03T06:36:55.211Z,1622.4
2023-05-03T06:38:54.006Z,1647
2023-05-03T06:41:40.659Z,1687
2023-05-03T06:44:13.326Z,1726
2023-05-03T06:46:32.323Z,1757
2023-05-03T06:48:36.746Z,1777
2023-05-03T06:51:29.584Z,1811
2023-05-03T06:54:08.625Z,1856
2023-05-03T06:56:33.594Z,1885
2023-05-03T07:00:41.549Z,1889
2023-05-03T07:03:26.701Z,1897
2023-05-03T07:05:57.643Z,1891
2023-05-03T07:08:14.677Z,1870
2023-05-03T07:10:17.864Z,1848
2023-05-03T07:13:09.047Z,1742
2023-05-03T07:15:46.203Z,1887
2023-05-03T07:18:09.483Z,1897
2023-05-03T07:20:18.680Z,1968
2023-05-03T07:23:15.855Z,1946
2023-05-03T07:25:59.201Z,1882
2023-05-03T07:28:28.695Z,1806
2023-05-03T07:30:43.952Z,1861
2023-05-03T07:32:45.514Z,1923
2023-05-03T07:35:34.960Z,1801
2023-05-03T07:38:10.377Z,1932
2023-05-03T07:40:31.179Z,1972
2023-05-03T07:42:38.696Z,1968
2023-05-03T07:45:34.095Z,1948
2023-05-03T07:48:15.583Z,1973
2023-05-03T07:50:43.181Z,1971
2023-05-03T07:52:56.743Z,1982
2023-05-03T07:54:56.278Z,1973
2023-05-03T07:57:44.069Z,1978
2023-05-03T08:00:17.789Z,1975
2023-05-03T08:02:37.495Z,1973
2023-05-03T08:07:36.957Z,1970
2023-05-03T08:10:16.902Z,1964
2023-05-03T08:12:42.214Z,1950
2023-05-03T08:14:54.001Z,1957
2023-05-03T08:16:51.787Z,1953
2023-05-03T08:19:37.448Z,1954
2023-05-03T08:22:09.332Z,1952
2023-05-03T08:24:27.250Z,1949
2023-05-03T08:26:31.202Z,1955
2023-05-03T08:29:23.766Z,1964
2023-05-03T08:32:00.980Z,1969
2023-05-03T08:34:25.014Z,1974
2023-05-03T08:36:35.260Z,1978
2023-05-03T08:38:31.506Z,1973
2023-05-03T08:41:15.558Z,1997
2023-05-03T08:43:45.654Z,2001
2023-05-03T08:46:01.935Z,2021
2023-05-03T08:48:04.340Z,2030
2023-05-03T08:50:54.235Z,2052
2023-05-03T08:53:30.474Z,2072
2023-05-03T08:55:52.776Z,2092
2023-05-03T08:58:01.054Z,2099
2023-05-03T09:00:57.328Z,2144
2023-05-03T09:03:39.790Z,2184
2023-05-03T09:06:07.777Z,2199
2023-05-03T09:08:21.963Z,2243
2023-05-03T09:10:22.393Z,2301
2023-05-03T09:13:10.740Z,2352
2023-05-03T09:15:44.752Z,2336
2023-05-03T09:18:05.205Z,2291
2023-05-03T09:20:11.630Z,2393
2023-05-03T09:23:05.351Z,2429
2023-05-03T09:25:46.103Z,2371
2023-05-03T09:28:12.516Z,2455
2023-05-03T09:30:24.848Z,2249
2023-05-03T09:32:23.518Z,2332
2023-05-03T09:35:09.786Z,2385
2023-05-03T09:37:42.193Z,2340
2023-05-03T09:40:00.603Z,2428
2023-05-03T09:42:05.153Z,2522
2023-05-03T09:44:57.712Z,2548
2023-05-03T09:47:35.945Z,2520
2023-05-03T09:50:00.540Z,2572
2023-05-03T09:52:11.079Z,2592
2023-05-03T09:54:07.621Z,2538
2023-05-03T09:56:52.236Z,2616
2023-05-03T09:59:22.907Z,2739
2023-05-03T10:01:39.449Z,2750
2023-05-03T10:03:42.253Z,2373
2023-05-03T10:06:32.913Z,2620
2023-05-03T10:09:09.509Z,2662
2023-05-03T10:11:32.178Z,2718
2023-05-03T10:13:40.671Z,2711
2023-05-03T10:16:37.405Z,2662
2023-05-03T10:19:20.266Z,2785
2023-05-03T10:21:49.097Z,2863
2023-05-03T10:24:04.016Z,2929
2023-05-03T10:26:04.938Z,2919
2023-05-03T10:28:54.004Z,2789
2023-05-03T10:31:29.089Z,2824
2023-05-03T10:33:50.477Z,2873
2023-05-03T10:35:57.406Z,2823
2023-05-03T10:38:52.622Z,2744
2023-05-03T10:41:33.755Z,2822
2023-05-03T10:44:00.966Z,2833
2023-05-03T10:46:14.414Z,2773
2023-05-03T10:48:13.854Z,2803
2023-05-03T10:51:01.021Z,2832
2023-05-03T10:53:34.465Z,2871
2023-05-03T10:55:53.881Z,2845
2023-05-03T11:00:52.834Z,2826
2023-05-03T11:03:32.375Z,2851
2023-05-03T11:05:57.425Z,2846
2023-05-03T11:08:08.851Z,2900
2023-05-03T11:10:06.664Z,2837
2023-05-03T11:12:52.123Z,2903
2023-05-03T11:15:23.527Z,2881
2023-05-03T11:17:41.264Z,2873
2023-05-03T11:19:44.952Z,2869
2023-05-03T11:22:36.608Z,2906
2023-05-03T11:25:14.481Z,2914
2023-05-03T11:27:38.355Z,2922
2023-05-03T11:29:48.123Z,2927
2023-05-03T11:31:44.120Z,2933
2023-05-03T11:34:27.928Z,2938
2023-05-03T11:36:57.824Z,2909
2023-05-03T11:39:13.639Z,2931
2023-05-03T11:41:15.716Z,2947
2023-05-03T11:44:15.799Z,3008
2023-05-03T11:46:41.575Z,3009
2023-05-03T11:49:03.658Z,3016
2023-05-03T11:51:11.718Z,3001
2023-05-03T11:54:20.808Z,2977
2023-05-03T11:56:50.864Z,2990
2023-05-03T11:59:17.534Z,2969
2023-05-03T12:01:31.698Z,2963
2023-05-03T12:03:33.213Z,2977
2023-05-03T12:06:20.548Z,2969
2023-05-03T12:08:54.883Z,2976
2023-05-03T12:11:16.196Z,2964
2023-05-03T12:13:21.517Z,2977
2023-05-03T12:16:18.157Z,2965
2023-05-03T12:18:56.551Z,2976
2023-05-03T12:23:34.784Z,2965
2023-05-03T12:25:34.162Z,2940
2023-05-03T12:28:21.050Z,2963
2023-05-03T12:30:53.380Z,2951
2023-05-03T12:33:10.881Z,2940
2023-05-03T12:35:17.078Z,3005
2023-05-03T12:38:09.424Z,2976
2023-05-03T12:40:46.403Z,2947
2023-05-03T12:43:10.910Z,2950
2023-05-03T12:45:21.976Z,2876
2023-05-03T12:47:26.645Z,2871
2023-05-03T12:50:06.009Z,2917
2023-05-03T12:52:37.654Z,2901
2023-05-03T12:54:53.730Z,2904
2023-05-03T12:56:55.176Z,2919
2023-05-03T12:59:51.663Z,2882
2023-05-03T13:03:12.844Z,2917
2023-05-03T13:04:57.562Z,2932
2023-05-03T13:12:32.617Z,2869
2023-05-03T13:15:01.573Z,2809
2023-05-03T13:17:16.646Z,2842
2023-05-03T13:19:17.721Z,2828
2023-05-03T13:22:06.736Z,2804
2023-05-03T13:24:42.148Z,2798
2023-05-03T13:27:03.028Z,2708
2023-05-03T13:29:10.138Z,2827
2023-05-03T13:32:05.314Z,2874
2023-05-03T13:34:46.485Z,2841
2023-05-03T13:37:14.169Z,2842
2023-05-03T13:39:26.322Z,2839
2023-05-03T13:41:25.696Z,2862
2023-05-03T13:44:12.931Z,2771
2023-05-03T13:46:46.181Z,2780
2023-05-03T13:49:05.768Z,2769
2023-05-03T13:51:11.101Z,2789
2023-05-03T13:54:04.361Z,2735
2023-05-03T13:56:43.790Z,2795
2023-05-03T13:59:09.316Z,2842
2023-05-03T14:01:20.809Z,2819
2023-05-03T14:03:18.507Z,2785
2023-05-03T14:06:03.995Z,2713
2023-05-03T14:08:16.681Z,2675
2023-05-03T14:10:15.323Z,2720
2023-05-03T14:13:01.816Z,2682
2023-05-03T14:15:34.550Z,2604
2023-05-03T14:17:54.068Z,2607
2023-05-03T14:19:57.920Z,2612
2023-05-03T14:22:50.604Z,2485
2023-05-03T14:25:29.298Z,2617
2023-05-03T14:27:54.028Z,2584
2023-05-03T14:30:04.710Z,2499
2023-05-03T14:32:01.483Z,2396
2023-05-03T14:34:46.272Z,2270
2023-05-03T14:37:17.118Z,2423
2023-05-03T14:39:34.083Z,2418
2023-05-03T14:41:38.188Z,2352
2023-05-03T14:44:28.075Z,2419
2023-05-03T14:47:04.923Z,2323
2023-05-03T14:49:27.959Z,2393
2023-05-03T14:51:37.020Z,2120
2023-05-03T14:54:34.158Z,2360
2023-05-03T14:57:17.279Z,2242
2023-05-03T14:59:46.379Z,2256
2023-05-03T15:02:01.482Z,2085
2023-05-03T15:04:02.778Z,2131
2023-05-03T15:06:51.978Z,2152
2023-05-03T15:09:27.120Z,2040
2023-05-03T15:11:48.530Z,2024
2023-05-03T15:13:55.967Z,2000
2023-05-03T15:16:51.069Z,1980
2023-05-03T15:19:32.487Z,1900
2023-05-03T15:21:59.448Z,1862
2023-05-03T15:24:12.852Z,1764
2023-05-03T15:26:12.420Z,1835
2023-05-03T15:28:59.779Z,1804
2023-05-03T15:31:33.239Z,1761
2023-05-03T15:33:52.652Z,1728
2023-05-03T15:35:58.301Z,1742
2023-05-03T15:38:51.753Z,1760
2023-05-03T15:41:31.180Z,1745
2023-05-03T15:43:56.960Z,1527
2023-05-03T15:46:08.777Z,1503.3
2023-05-03T15:48:06.454Z,1582
2023-05-03T15:50:52.285Z,1631.3
2023-05-03T15:53:24.075Z,1625.6
2023-05-03T15:55:41.802Z,1532.8
2023-05-03T15:57:45.790Z,1448.3
2023-05-03T16:00:37.662Z,1501.4
2023-05-03T16:03:15.653Z,1543.6
2023-05-03T16:05:39.323Z,1507.2
2023-05-03T16:09:45.169Z,1477.7
2023-05-03T16:12:28.621Z,1418.2
2023-05-03T16:14:58.621Z,1383
2023-05-03T16:17:14.671Z,1380.4
2023-05-03T16:19:16.682Z,1354.2
2023-05-03T16:22:06.816Z,1335.6
2023-05-03T16:24:42.860Z,1282.5
2023-05-03T16:27:04.968Z,1285.7
2023-05-03T16:29:13.337Z,1236.4
2023-05-03T16:32:09.701Z,1181.4
2023-05-03T16:34:51.691Z,1142.7
2023-05-03T16:37:19.839Z,1124.1
2023-05-03T16:39:34.289Z,1120.9
2023-05-03T16:41:34.554Z,1098.8
2023-05-03T16:44:22.843Z,1055
2023-05-03T16:46:57.252Z,1053.1
2023-05-03T16:49:17.691Z,1031
2023-05-03T16:51:24.089Z,1008.6
2023-05-03T16:54:18.507Z,975
2023-05-03T16:56:59.166Z,957.7
2023-05-03T16:59:25.490Z,928.6
2023-05-03T17:01:38.037Z,896.6
2023-05-03T17:03:36.135Z,879
2023-05-03T17:06:22.629Z,854
2023-05-03T17:08:55.080Z,834.2
2023-05-03T17:11:13.743Z,818.2
2023-05-03T17:13:18.483Z,800.6
2023-05-03T17:16:10.928Z,782.4
2023-05-03T17:18:49.677Z,758
2023-05-03T17:21:14.447Z,740.1
2023-05-03T17:23:25.344Z,730.2
2023-05-03T17:25:22.163Z,687.6
2023-05-03T17:28:07.046Z,689.9
2023-05-03T17:30:37.806Z,681.6
2023-05-03T17:32:54.588Z,667.2
2023-05-03T17:34:57.546Z,648.4
2023-05-03T17:37:48.391Z,624.3
2023-05-03T17:40:25.266Z,618.7
2023-05-03T17:42:48.354Z,601.1
2023-05-03T17:44:57.428Z,586.2
2023-05-03T17:47:54.387Z,559.6
2023-05-03T17:50:37.516Z,549.9
2023-05-03T17:53:06.628Z,528.4
2023-05-03T17:55:21.291Z,507.2
2023-05-03T17:57:22.640Z,486.2
2023-05-03T18:00:11.765Z,459.2
2023-05-03T18:02:46.977Z,439.8
2023-05-03T18:05:08.090Z,402.4
2023-05-03T18:07:15.445Z,395.3
2023-05-03T18:10:10.702Z,373.9
2023-05-03T18:12:51.978Z,363.6
2023-05-03T18:15:19.382Z,336.8
2023-05-03T18:17:32.777Z,307.6
2023-05-03T18:19:32.198Z,282
2023-05-03T18:22:19.710Z,255.3
2023-05-03T18:24:53.292Z,226.8
2023-05-03T18:27:12.809Z,208.8
2023-05-03T18:29:18.615Z,193.8
2023-05-03T18:32:12.295Z,161.76
2023-05-03T18:34:51.866Z,132.96
2023-05-03T18:37:17.395Z,107.92
2023-05-03T18:39:29.191Z,91.44
2023-05-03T18:41:26.882Z,77.36
2023-05-03T18:44:12.505Z,60.48
2023-05-03T18:46:43.926Z,49.94
2023-05-03T18:49:03.394Z,39.96
2023-05-03T18:51:05.668Z,32.24
2023-05-03T18:53:57.720Z,23.6
2023-05-03T18:56:35.772Z,16.98
2023-05-03T18:58:59.742Z,13.47
2023-05-03T19:01:09.933Z,9.85
2023-05-03T19:03:06.094Z,7.57
2023-05-03T19:05:50.054Z,5.07
2023-05-03T19:08:20.041Z,3.57
2023-05-03T19:10:36.210Z,2.71
2023-05-03T19:12:38.379Z,1.92
2023-05-03T19:15:28.351Z,1.24
2023-05-03T19:18:04.625Z,0.85
2023-05-03T19:20:26.756Z,0.59
2023-05-03T19:22:34.899Z,0.45
2023-05-03T19:25:31.222Z,0.3
2023-05-03T19:28:13.557Z,0.2
2023-05-03T19:30:41.869Z,0.14
2023-05-03T19:32:56.108Z,0.1
2023-05-03T19:34:56.524Z,0.08
2023-05-03T19:37:44.399Z,0.07
2023-05-03T19:44:45.749Z,0.06
2023-05-03T19:47:40.121Z,0.03
2023-05-03T19:52:47.190Z,0.02
2023-05-03T20:28:19.676Z,0.01
2023-05-03T20:38:18.397Z,0.02
2023-05-03T20:41:15.062Z,0.01
2023-05-03T20:48:41.592Z,0.02
2023-05-03T20:53:31.496Z,0.01
2023-05-03T21:03:29.741Z,0.02
2023-05-03T21:06:10.742Z,0.01
2023-05-03T22:40:48.645Z,0.02
2023-05-03T22:43:29.016Z,0.01
2023-05-03T23:29:19.428Z,0.02
2023-05-03T23:34:25.537Z,0.01
